createdAt,value
2022-08-31T00:01:27.859Z,51.21
2022-08-31T00:03:54.283Z,51.14
2022-08-31T00:06:22.031Z,51.41
2022-08-31T00:08:49.770Z,51.30
2022-08-31T00:11:18.809Z,51.25
2022-08-31T00:13:46.647Z,51.54
2022-08-31T00:16:14.418Z,51.72
2022-08-31T00:18:42.180Z,51.54
2022-08-31T00:21:09.805Z,52.02
2022-08-31T00:23:37.651Z,52.12
2022-08-31T00:26:05.576Z,51.93
2022-08-31T00:28:33.355Z,52.53
2022-08-31T00:31:01.011Z,52.54
2022-08-31T00:33:28.698Z,51.98
2022-08-31T00:35:56.838Z,52.75
2022-08-31T00:38:24.598Z,52.94
2022-08-31T00:40:52.359Z,52.96
2022-08-31T00:43:20.141Z,52.57
2022-08-31T00:45:48.171Z,52.97
2022-08-31T00:48:15.881Z,53.23
2022-08-31T00:50:43.704Z,53.00
2022-08-31T00:53:11.429Z,53.12
2022-08-31T00:55:40.926Z,52.78
2022-08-31T00:58:08.657Z,53.39
2022-08-31T01:00:36.437Z,53.42
2022-08-31T01:03:04.110Z,53.16
2022-08-31T01:05:32.181Z,53.85
2022-08-31T01:07:59.885Z,53.88
2022-08-31T01:10:27.686Z,53.88
2022-08-31T01:12:55.384Z,53.51
2022-08-31T01:15:25.103Z,53.95
2022-08-31T01:17:52.770Z,53.74
2022-08-31T01:20:20.527Z,54.00
2022-08-31T01:22:48.264Z,54.23
2022-08-31T01:25:16.239Z,53.66
2022-08-31T01:27:43.992Z,54.01
2022-08-31T01:30:11.666Z,53.72
2022-08-31T01:32:39.371Z,54.21
2022-08-31T01:35:11.456Z,53.39
2022-08-31T01:37:39.377Z,54.06
2022-08-31T01:40:07.618Z,53.79
2022-08-31T01:42:35.281Z,53.93
2022-08-31T01:45:02.992Z,53.61
2022-08-31T01:47:30.714Z,54.10
2022-08-31T01:49:58.367Z,53.54
2022-08-31T01:52:27.529Z,53.45
2022-08-31T01:54:56.575Z,53.55
2022-08-31T01:57:33.717Z,53.92
2022-08-31T02:00:02.193Z,53.57
2022-08-31T02:02:30.246Z,53.59
2022-08-31T02:04:59.188Z,53.57
2022-08-31T02:07:27.140Z,53.82
2022-08-31T02:09:55.437Z,54.11
2022-08-31T02:12:23.369Z,54.19
2022-08-31T02:14:51.060Z,54.49
2022-08-31T02:17:18.845Z,53.99
2022-08-31T02:19:46.650Z,54.05
2022-08-31T02:22:14.400Z,54.41
2022-08-31T02:24:42.363Z,54.44
2022-08-31T02:27:10.187Z,54.36
2022-08-31T02:29:37.878Z,54.94
2022-08-31T02:32:05.616Z,54.98
2022-08-31T02:34:34.242Z,54.62
2022-08-31T02:37:02.064Z,55.09
2022-08-31T02:39:29.678Z,55.09
2022-08-31T02:41:57.527Z,54.90
2022-08-31T02:44:25.436Z,55.08
2022-08-31T02:46:53.134Z,54.91
2022-08-31T02:49:21.800Z,54.96
2022-08-31T02:51:49.489Z,54.59
2022-08-31T02:54:17.628Z,55.09
2022-08-31T02:56:45.306Z,55.11
2022-08-31T02:59:12.935Z,55.14
2022-08-31T03:01:42.353Z,55.43
2022-08-31T03:04:10.318Z,55.50
2022-08-31T03:06:37.951Z,55.21
2022-08-31T03:09:05.592Z,55.66
2022-08-31T03:11:33.339Z,55.58
2022-08-31T03:14:01.276Z,55.50
2022-08-31T03:16:28.973Z,55.50
2022-08-31T03:18:56.694Z,55.81
2022-08-31T03:21:24.313Z,55.68
2022-08-31T03:23:52.255Z,55.66
2022-08-31T03:26:19.971Z,55.42
2022-08-31T03:28:47.643Z,55.96
2022-08-31T03:31:15.290Z,55.85
2022-08-31T03:33:43.181Z,56.20
2022-08-31T03:36:11.234Z,56.13
2022-08-31T03:38:38.816Z,56.41
2022-08-31T03:41:06.538Z,56.21
2022-08-31T03:43:34.396Z,56.58
2022-08-31T03:46:02.070Z,56.30
2022-08-31T03:48:33.728Z,56.48
2022-08-31T03:51:01.486Z,56.17
2022-08-31T03:53:29.088Z,56.22
2022-08-31T03:56:02.056Z,56.55
2022-08-31T03:58:30.018Z,56.36
2022-08-31T04:00:58.066Z,56.42
2022-08-31T04:03:25.692Z,56.75
2022-08-31T04:05:54.654Z,56.97
2022-08-31T04:08:22.271Z,56.80
2022-08-31T04:10:50.085Z,56.67
2022-08-31T04:13:17.808Z,56.46
2022-08-31T04:15:46.804Z,56.81
2022-08-31T04:18:14.502Z,56.20
2022-08-31T04:20:42.321Z,56.58
2022-08-31T04:23:10.162Z,56.68
2022-08-31T04:25:39.230Z,56.61
2022-08-31T04:28:09.199Z,56.84
2022-08-31T04:30:37.896Z,56.86
2022-08-31T04:33:05.692Z,56.85
2022-08-31T04:35:33.410Z,56.74
2022-08-31T04:38:00.998Z,56.81
2022-08-31T04:40:29.668Z,56.80
2022-08-31T04:42:57.326Z,56.80
2022-08-31T04:45:25.342Z,56.78
2022-08-31T04:47:53.037Z,56.72
2022-08-31T04:50:20.789Z,56.54
2022-08-31T04:53:03.510Z,56.55
2022-08-31T04:55:31.771Z,57.10
2022-08-31T04:57:59.420Z,56.44
2022-08-31T05:00:27.927Z,56.94
2022-08-31T05:02:55.611Z,56.95
2022-08-31T05:05:23.459Z,56.45
2022-08-31T05:07:51.301Z,57.19
2022-08-31T05:10:18.930Z,57.22
2022-08-31T05:12:46.717Z,57.00
2022-08-31T05:15:14.628Z,57.32
2022-08-31T05:17:42.293Z,57.29
2022-08-31T05:20:10.150Z,57.23
2022-08-31T05:22:38.098Z,57.18
2022-08-31T05:25:07.237Z,57.60
2022-08-31T05:27:35.228Z,57.32
2022-08-31T05:30:02.918Z,57.76
2022-08-31T05:32:30.644Z,57.81
2022-08-31T05:34:58.318Z,58.08
2022-08-31T05:37:27.703Z,58.25
2022-08-31T05:39:55.481Z,58.34
2022-08-31T05:42:23.155Z,58.31
2022-08-31T05:44:51.068Z,57.93
2022-08-31T05:47:18.848Z,57.99
2022-08-31T05:49:47.129Z,58.59
2022-08-31T05:52:16.189Z,58.27
2022-08-31T05:54:44.541Z,58.76
2022-08-31T05:57:12.234Z,58.87
2022-08-31T05:59:39.950Z,58.42
2022-08-31T06:02:08.891Z,58.16
2022-08-31T06:04:37.679Z,58.48
2022-08-31T06:07:05.608Z,58.42
2022-08-31T06:09:35.328Z,58.39
2022-08-31T06:12:04.273Z,58.83
2022-08-31T06:14:32.996Z,58.37
2022-08-31T06:17:00.706Z,58.59
2022-08-31T06:19:28.383Z,58.79
2022-08-31T06:21:57.405Z,58.35
2022-08-31T06:24:25.029Z,58.37
2022-08-31T06:26:58.798Z,58.51
2022-08-31T06:29:27.054Z,58.84
2022-08-31T06:31:55.797Z,58.59
2022-08-31T06:34:23.756Z,58.46
2022-08-31T06:36:51.370Z,58.53
2022-08-31T06:39:19.662Z,58.35
2022-08-31T06:41:52.782Z,58.95
2022-08-31T06:44:21.244Z,58.68
2022-08-31T06:46:49.003Z,58.66
2022-08-31T06:49:16.795Z,58.52
2022-08-31T06:51:44.387Z,59.22
2022-08-31T06:54:28.390Z,58.93
2022-08-31T06:56:56.969Z,58.75
2022-08-31T06:59:28.527Z,57.71
2022-08-31T07:01:56.798Z,57.80
2022-08-31T07:04:24.852Z,57.01
2022-08-31T07:06:52.480Z,57.34
2022-08-31T07:09:20.088Z,56.74
2022-08-31T07:11:47.771Z,57.35
2022-08-31T07:14:15.679Z,56.93
2022-08-31T07:16:43.473Z,56.91
2022-08-31T07:19:11.288Z,57.03
2022-08-31T07:21:39.003Z,57.10
2022-08-31T07:24:07.312Z,57.12
2022-08-31T07:26:36.556Z,57.25
2022-08-31T07:29:07.066Z,57.72
2022-08-31T07:31:42.830Z,57.44
2022-08-31T07:34:11.231Z,57.38
2022-08-31T07:36:59.342Z,56.62
2022-08-31T07:39:44.583Z,56.95
2022-08-31T07:42:12.227Z,56.52
2022-08-31T07:44:41.455Z,56.51
2022-08-31T07:47:12.559Z,56.76
2022-08-31T07:49:44.673Z,56.55
2022-08-31T07:52:12.822Z,56.86
2022-08-31T07:54:42.508Z,56.94
2022-08-31T07:57:10.210Z,56.72
2022-08-31T07:59:39.973Z,56.44
2022-08-31T08:02:07.798Z,56.76
2022-08-31T08:04:43.256Z,56.72
2022-08-31T08:07:11.331Z,56.10
2022-08-31T08:09:39.291Z,56.24
2022-08-31T08:12:07.536Z,56.42
2022-08-31T08:14:35.564Z,56.16
2022-08-31T08:17:03.171Z,55.86
2022-08-31T08:19:30.945Z,55.92
2022-08-31T08:21:59.999Z,56.40
2022-08-31T08:24:29.549Z,55.83
2022-08-31T08:26:57.261Z,55.59
2022-08-31T08:29:24.976Z,55.80
2022-08-31T08:31:56.105Z,55.56
2022-08-31T08:34:31.561Z,55.37
2022-08-31T08:36:59.970Z,55.03
2022-08-31T08:39:27.668Z,55.23
2022-08-31T08:41:55.367Z,54.83
2022-08-31T08:44:23.049Z,55.11
2022-08-31T08:46:50.867Z,54.56
2022-08-31T08:49:19.068Z,54.64
2022-08-31T08:51:46.722Z,54.47
2022-08-31T08:54:14.678Z,54.95
2022-08-31T08:56:47.285Z,54.57
2022-08-31T08:59:19.067Z,54.35
2022-08-31T09:01:48.026Z,53.90
2022-08-31T09:04:17.293Z,53.70
2022-08-31T09:06:45.980Z,53.80
2022-08-31T09:09:18.347Z,53.78
2022-08-31T09:11:46.882Z,53.36
2022-08-31T09:14:17.762Z,52.90
2022-08-31T09:16:48.197Z,52.67
2022-08-31T09:19:17.239Z,52.69
2022-08-31T09:21:45.102Z,52.05
2022-08-31T09:24:13.656Z,51.80
2022-08-31T09:26:41.447Z,51.55
2022-08-31T09:29:14.220Z,51.52
2022-08-31T09:31:42.414Z,50.85
2022-08-31T09:34:14.504Z,51.26
2022-08-31T09:36:42.219Z,51.02
2022-08-31T09:39:09.904Z,51.07
2022-08-31T09:41:37.714Z,51.07
2022-08-31T09:44:05.333Z,50.33
2022-08-31T09:46:33.007Z,50.35
2022-08-31T09:49:03.284Z,50.15
2022-08-31T09:51:30.980Z,49.94
2022-08-31T09:54:16.566Z,50.14
2022-08-31T09:56:48.459Z,49.07
2022-08-31T09:59:16.170Z,47.45
2022-08-31T10:01:45.277Z,47.03
2022-08-31T10:04:14.900Z,45.39
2022-08-31T10:06:45.704Z,44.41
2022-08-31T10:09:15.172Z,43.50
2022-08-31T10:11:42.811Z,43.46
2022-08-31T10:14:16.249Z,42.53
2022-08-31T10:16:44.016Z,42.49
2022-08-31T10:19:12.086Z,41.55
2022-08-31T10:21:39.885Z,41.06
2022-08-31T10:24:10.444Z,40.83
2022-08-31T10:26:38.086Z,40.54
2022-08-31T10:29:06.459Z,40.40
2022-08-31T10:31:37.066Z,39.33
2022-08-31T10:34:23.524Z,38.78
2022-08-31T10:36:51.267Z,39.18
2022-08-31T10:39:18.928Z,39.37
2022-08-31T10:41:49.704Z,40.60
2022-08-31T10:44:24.356Z,41.76
2022-08-31T10:46:54.485Z,41.33
2022-08-31T10:49:22.185Z,41.51
2022-08-31T10:51:51.131Z,41.44
2022-08-31T10:54:24.890Z,42.57
2022-08-31T10:56:59.346Z,42.52
2022-08-31T10:59:28.541Z,42.22
2022-08-31T11:01:56.518Z,42.40
2022-08-31T11:04:26.097Z,42.76
2022-08-31T11:06:55.135Z,43.77
2022-08-31T11:09:22.811Z,44.18
2022-08-31T11:11:52.073Z,44.42
2022-08-31T11:14:19.672Z,43.88
2022-08-31T11:16:47.353Z,43.73
2022-08-31T11:19:16.956Z,42.02
2022-08-31T11:21:45.416Z,41.59
2022-08-31T11:24:13.137Z,42.31
2022-08-31T11:26:42.205Z,41.37
2022-08-31T11:29:13.203Z,39.90
2022-08-31T11:31:41.239Z,39.07
2022-08-31T11:34:17.253Z,39.76
2022-08-31T11:36:45.212Z,39.62
2022-08-31T11:39:12.868Z,39.82
2022-08-31T11:41:46.730Z,39.63
2022-08-31T11:44:17.379Z,38.67
2022-08-31T11:46:45.825Z,38.62
2022-08-31T11:49:15.473Z,38.73
2022-08-31T11:51:43.267Z,38.67
2022-08-31T11:54:10.933Z,39.82
2022-08-31T11:56:38.742Z,40.15
2022-08-31T11:59:06.468Z,41.20
2022-08-31T12:01:35.922Z,41.94
2022-08-31T12:04:04.656Z,42.17
2022-08-31T12:06:37.348Z,42.67
2022-08-31T12:09:05.000Z,42.87
2022-08-31T12:11:33.571Z,42.81
2022-08-31T12:14:01.421Z,42.83
2022-08-31T12:16:30.317Z,43.38
2022-08-31T12:18:58.117Z,43.06
2022-08-31T12:21:43.506Z,42.67
2022-08-31T12:24:15.341Z,41.57
2022-08-31T12:26:46.356Z,41.51
2022-08-31T12:29:14.102Z,42.05
2022-08-31T12:31:41.810Z,41.90
2022-08-31T12:34:09.947Z,40.93
2022-08-31T12:36:37.662Z,40.43
2022-08-31T12:39:06.420Z,39.77
2022-08-31T12:41:34.029Z,39.62
2022-08-31T12:44:03.916Z,38.47
2022-08-31T12:46:32.074Z,37.10
2022-08-31T12:48:59.792Z,36.80
2022-08-31T12:51:28.692Z,37.58
2022-08-31T12:53:56.521Z,38.12
2022-08-31T12:56:24.123Z,39.30
2022-08-31T12:58:51.816Z,40.22
2022-08-31T13:01:20.348Z,41.01
2022-08-31T13:03:53.948Z,41.44
2022-08-31T13:06:22.087Z,42.04
2022-08-31T13:08:50.115Z,41.90
2022-08-31T13:11:22.784Z,42.36
2022-08-31T13:13:50.977Z,42.70
2022-08-31T13:16:18.683Z,42.27
2022-08-31T13:18:46.401Z,42.62
2022-08-31T13:21:14.127Z,42.53
2022-08-31T13:23:41.866Z,42.77
2022-08-31T13:26:20.786Z,41.80
2022-08-31T13:28:50.353Z,41.45
2022-08-31T13:31:19.727Z,41.36
2022-08-31T13:33:48.490Z,41.17
2022-08-31T13:36:16.091Z,40.94
2022-08-31T13:38:43.805Z,40.46
2022-08-31T13:41:12.219Z,39.53
2022-08-31T13:43:39.923Z,39.63
2022-08-31T13:46:07.629Z,39.38
2022-08-31T13:48:35.405Z,39.27
2022-08-31T13:51:03.413Z,39.38
2022-08-31T13:53:35.399Z,39.53
2022-08-31T13:56:03.377Z,39.04
2022-08-31T13:58:31.171Z,38.88
2022-08-31T14:00:59.081Z,38.59
2022-08-31T14:03:28.912Z,38.32
2022-08-31T14:05:59.002Z,37.20
2022-08-31T14:08:26.793Z,36.54
2022-08-31T14:10:56.469Z,36.41
2022-08-31T14:13:28.028Z,36.28
2022-08-31T14:15:56.738Z,36.47
2022-08-31T14:18:26.123Z,36.64
2022-08-31T14:21:19.438Z,35.97
2022-08-31T14:23:43.222Z,35.26
2022-08-31T14:26:12.542Z,34.90
2022-08-31T14:28:44.639Z,34.72
2022-08-31T14:31:15.632Z,34.28
2022-08-31T14:33:43.626Z,33.98
2022-08-31T14:36:15.167Z,33.45
2022-08-31T14:38:42.902Z,33.60
2022-08-31T14:41:10.807Z,34.17
2022-08-31T14:43:40.426Z,35.54
2022-08-31T14:46:08.166Z,36.56
2022-08-31T14:48:36.242Z,37.82
2022-08-31T14:51:06.707Z,38.33
2022-08-31T14:53:37.219Z,39.26
2022-08-31T14:56:05.188Z,39.76
2022-08-31T14:58:41.403Z,39.43
2022-08-31T15:01:11.090Z,39.01
2022-08-31T15:03:40.395Z,38.14
2022-08-31T15:06:08.947Z,36.92
2022-08-31T15:08:38.565Z,36.35
2022-08-31T15:11:06.531Z,35.72
2022-08-31T15:13:38.710Z,35.59
2022-08-31T15:16:06.429Z,35.03
2022-08-31T15:18:34.184Z,34.77
2022-08-31T15:21:02.267Z,34.65
2022-08-31T15:23:30.302Z,33.93
2022-08-31T15:25:58.286Z,33.13
2022-08-31T15:28:28.646Z,32.71
2022-08-31T15:30:56.386Z,32.68
2022-08-31T15:33:24.064Z,32.80
2022-08-31T15:35:52.108Z,32.03
2022-08-31T15:38:20.025Z,31.80
2022-08-31T15:40:47.996Z,31.41
2022-08-31T15:43:15.999Z,31.48
2022-08-31T15:45:44.773Z,31.28
2022-08-31T15:48:29.983Z,30.77
2022-08-31T15:53:56.358Z,32.85
2022-08-31T15:56:33.441Z,32.71
2022-08-31T15:59:01.932Z,32.95
2022-08-31T16:01:29.626Z,32.75
2022-08-31T16:03:57.712Z,32.45
2022-08-31T16:06:28.107Z,31.70
2022-08-31T16:08:55.810Z,31.89
2022-08-31T16:11:23.621Z,32.37
2022-08-31T16:13:54.501Z,33.49
2022-08-31T16:16:22.464Z,35.58
2022-08-31T16:18:51.865Z,36.50
2022-08-31T16:21:22.204Z,37.29
2022-08-31T16:23:50.230Z,37.72
2022-08-31T16:26:21.521Z,38.89
2022-08-31T16:28:49.534Z,39.25
2022-08-31T16:31:17.281Z,39.20
2022-08-31T16:33:45.292Z,39.86
2022-08-31T16:36:13.020Z,40.53
2022-08-31T16:38:40.747Z,40.55
2022-08-31T16:41:10.090Z,40.76
2022-08-31T16:43:38.202Z,40.92
2022-08-31T16:46:24.229Z,40.89
2022-08-31T16:49:11.252Z,40.75
2022-08-31T16:51:39.012Z,41.59
2022-08-31T16:54:07.504Z,41.05
2022-08-31T16:56:35.249Z,41.70
2022-08-31T16:59:02.904Z,41.53
2022-08-31T17:01:31.011Z,41.49
2022-08-31T17:03:58.769Z,41.51
2022-08-31T17:06:27.603Z,41.70
2022-08-31T17:08:55.310Z,41.50
2022-08-31T17:11:23.875Z,41.73
2022-08-31T17:13:51.861Z,42.26
2022-08-31T17:16:22.607Z,42.30
2022-08-31T17:18:50.697Z,42.09
2022-08-31T17:21:18.725Z,42.42
2022-08-31T17:23:48.277Z,42.50
2022-08-31T17:26:16.175Z,42.49
2022-08-31T17:28:43.953Z,42.60
2022-08-31T17:31:11.879Z,42.76
2022-08-31T17:33:39.938Z,42.94
2022-08-31T17:36:08.703Z,42.89
2022-08-31T17:38:36.877Z,42.97
2022-08-31T17:41:04.797Z,42.65
2022-08-31T17:43:39.401Z,43.31
2022-08-31T17:46:07.287Z,43.06
2022-08-31T17:48:36.393Z,43.57
2022-08-31T17:51:04.628Z,43.13
2022-08-31T17:53:34.318Z,43.47
2022-08-31T17:56:02.319Z,43.40
2022-08-31T17:58:30.069Z,43.55
2022-08-31T18:00:58.141Z,43.54
2022-08-31T18:03:27.272Z,44.26
2022-08-31T18:05:55.093Z,43.94
2022-08-31T18:08:24.629Z,44.46
2022-08-31T18:10:53.506Z,44.26
2022-08-31T18:13:24.253Z,44.25
2022-08-31T18:15:52.239Z,44.55
2022-08-31T18:18:20.093Z,44.54
2022-08-31T18:20:47.949Z,44.85
2022-08-31T18:23:16.632Z,44.63
2022-08-31T18:25:45.800Z,45.07
2022-08-31T18:28:13.687Z,45.16
2022-08-31T18:30:41.567Z,45.36
2022-08-31T18:33:14.765Z,45.19
2022-08-31T18:35:44.197Z,45.39
2022-08-31T18:38:13.405Z,45.57
2022-08-31T18:40:58.697Z,45.51
2022-08-31T18:43:44.505Z,45.76
2022-08-31T18:46:12.356Z,45.34
2022-08-31T18:48:40.792Z,45.49
2022-08-31T18:51:08.442Z,45.39
2022-08-31T18:53:36.281Z,45.93
2022-08-31T18:56:05.509Z,45.52
2022-08-31T18:58:33.257Z,45.75
2022-08-31T19:01:01.301Z,46.16
2022-08-31T19:03:29.222Z,45.73
2022-08-31T19:05:59.428Z,45.79
2022-08-31T19:08:27.191Z,45.70
2022-08-31T19:10:56.506Z,46.07
2022-08-31T19:13:26.437Z,46.13
2022-08-31T19:15:56.895Z,45.53
2022-08-31T19:18:28.410Z,45.65
2022-08-31T19:20:56.095Z,45.55
2022-08-31T19:23:23.942Z,45.60
2022-08-31T19:25:53.460Z,45.78
2022-08-31T19:28:21.274Z,45.50
2022-08-31T19:30:49.018Z,45.97
2022-08-31T19:33:17.213Z,45.48
2022-08-31T19:35:47.338Z,45.55
2022-08-31T19:38:15.141Z,45.69
2022-08-31T19:40:43.102Z,45.64
2022-08-31T19:46:09.552Z,45.83
2022-08-31T19:48:44.002Z,45.48
2022-08-31T19:51:11.934Z,45.44
2022-08-31T19:53:40.435Z,45.53
2022-08-31T19:56:17.976Z,45.61
2022-08-31T19:58:47.243Z,45.69
2022-08-31T20:01:15.124Z,45.86
2022-08-31T20:03:42.939Z,45.63
2022-08-31T20:06:12.855Z,45.67
2022-08-31T20:08:40.808Z,46.04
2022-08-31T20:11:08.645Z,45.81
2022-08-31T20:13:36.326Z,46.16
2022-08-31T20:16:04.824Z,45.95
2022-08-31T20:18:32.551Z,46.25
2022-08-31T20:21:01.201Z,46.70
2022-08-31T20:23:30.389Z,46.17
2022-08-31T20:25:58.462Z,46.39
2022-08-31T20:28:27.470Z,46.55
2022-08-31T20:30:59.297Z,46.67
2022-08-31T20:33:27.162Z,46.29
2022-08-31T20:35:54.921Z,46.64
2022-08-31T20:38:22.630Z,46.64
2022-08-31T20:40:52.430Z,46.52
2022-08-31T20:43:21.223Z,46.42
2022-08-31T20:45:49.253Z,46.27
2022-08-31T20:48:34.533Z,46.18
2022-08-31T20:51:02.185Z,46.74
2022-08-31T20:53:43.015Z,46.43
2022-08-31T20:56:11.366Z,46.94
2022-08-31T20:58:44.871Z,46.91
2022-08-31T21:01:14.301Z,46.90
2022-08-31T21:03:42.167Z,47.05
2022-08-31T21:06:11.619Z,47.08
2022-08-31T21:08:39.730Z,47.39
2022-08-31T21:11:08.235Z,47.71
2022-08-31T21:13:36.041Z,47.50
2022-08-31T21:16:03.738Z,47.96
2022-08-31T21:18:33.252Z,47.83
2022-08-31T21:21:01.420Z,47.82
2022-08-31T21:23:31.726Z,47.39
2022-08-31T21:26:00.224Z,47.79
2022-08-31T21:28:29.643Z,47.71
2022-08-31T21:30:57.343Z,47.96
2022-08-31T21:33:25.817Z,48.07
2022-08-31T21:35:53.465Z,48.11
2022-08-31T21:38:21.234Z,48.05
2022-08-31T21:40:49.185Z,47.62
2022-08-31T21:43:17.296Z,48.10
2022-08-31T21:45:45.013Z,48.20
2022-08-31T21:48:12.639Z,48.06
2022-08-31T21:50:40.356Z,48.30
2022-08-31T21:53:08.066Z,47.95
2022-08-31T21:55:36.005Z,48.37
2022-08-31T21:58:03.654Z,48.46
2022-08-31T22:00:32.570Z,48.67
2022-08-31T22:03:00.574Z,48.33
2022-08-31T22:05:31.943Z,48.16
2022-08-31T22:07:59.564Z,48.66
2022-08-31T22:10:29.214Z,48.47
2022-08-31T22:12:57.057Z,48.26
2022-08-31T22:15:27.314Z,48.47
2022-08-31T22:18:35.617Z,48.31
2022-08-31T22:20:42.601Z,48.12
2022-08-31T22:23:10.638Z,48.07
2022-08-31T22:25:38.546Z,48.49
2022-08-31T22:28:07.554Z,48.79
2022-08-31T22:30:36.037Z,48.24
2022-08-31T22:33:03.759Z,48.50
2022-08-31T22:35:32.659Z,49.11
2022-08-31T22:38:00.280Z,49.40
2022-08-31T22:40:30.260Z,49.07
2022-08-31T22:42:58.782Z,49.26
2022-08-31T22:45:27.292Z,49.34
2022-08-31T22:47:54.935Z,49.48
2022-08-31T22:50:23.015Z,50.13
2022-08-31T22:52:50.592Z,50.26
2022-08-31T22:55:18.489Z,50.07
2022-08-31T22:57:46.172Z,50.41
2022-08-31T23:00:14.593Z,50.44
2022-08-31T23:02:45.022Z,50.67
2022-08-31T23:05:14.245Z,50.86
2022-08-31T23:07:42.989Z,50.45
2022-08-31T23:10:10.656Z,50.93
2022-08-31T23:12:38.226Z,50.67
2022-08-31T23:15:06.211Z,50.71
2022-08-31T23:17:34.920Z,51.08
2022-08-31T23:20:05.280Z,50.99
2022-08-31T23:22:32.838Z,51.21
2022-08-31T23:25:00.868Z,51.05
2022-08-31T23:27:28.624Z,51.67
2022-08-31T23:29:56.707Z,51.65
2022-08-31T23:32:27.913Z,51.26
2022-08-31T23:34:58.286Z,51.45
2022-08-31T23:37:26.059Z,52.00
2022-08-31T23:39:53.963Z,51.81
2022-08-31T23:42:21.806Z,51.87
2022-08-31T23:44:49.798Z,51.55
2022-08-31T23:47:17.389Z,51.79
2022-08-31T23:49:45.707Z,51.82
2022-08-31T23:52:18.858Z,52.61
2022-08-31T23:54:48.479Z,51.96
2022-08-31T23:57:31.630Z,52.20
